createdAt,value
2023-05-09T00:01:20.725Z,14.01
2023-05-09T00:03:47.743Z,14.16
2023-05-09T00:06:15.439Z,13.66
2023-05-09T00:08:41.965Z,14.20
2023-05-09T00:11:08.438Z,14.12
2023-05-09T00:13:34.875Z,13.81
2023-05-09T00:16:01.395Z,13.79
2023-05-09T00:18:28.498Z,13.90
2023-05-09T00:20:55.019Z,13.87
2023-05-09T00:23:21.464Z,13.68
2023-05-09T00:25:48.039Z,13.63
2023-05-09T00:28:14.544Z,13.76
2023-05-09T00:30:41.020Z,13.67
2023-05-09T00:33:07.542Z,13.51
2023-05-09T00:35:34.893Z,13.02
2023-05-09T00:38:01.460Z,13.01
2023-05-09T00:40:27.945Z,13.24
2023-05-09T00:42:55.999Z,13.49
2023-05-09T00:45:22.493Z,13.45
2023-05-09T00:47:48.978Z,13.27
2023-05-09T00:50:15.516Z,13.33
2023-05-09T00:52:42.028Z,13.50
2023-05-09T00:55:08.954Z,13.29
2023-05-09T00:57:36.207Z,13.69
2023-05-09T01:00:04.460Z,13.38
2023-05-09T01:02:32.196Z,13.34
2023-05-09T01:04:59.009Z,13.29
2023-05-09T01:07:36.624Z,12.87
2023-05-09T01:10:14.264Z,12.92
2023-05-09T01:13:05.076Z,13.51
2023-05-09T01:16:23.721Z,13.23
2023-05-09T01:18:56.597Z,13.15
2023-05-09T01:21:30.739Z,13.27
2023-05-09T01:24:12.712Z,12.90
2023-05-09T01:26:48.003Z,13.04
2023-05-09T01:29:35.399Z,13.11
2023-05-09T01:32:10.105Z,12.85
2023-05-09T01:34:38.699Z,12.55
2023-05-09T01:37:05.804Z,12.51
2023-05-09T01:39:34.201Z,12.43
2023-05-09T01:42:03.476Z,12.33
2023-05-09T01:44:33.897Z,12.51
2023-05-09T01:47:01.287Z,12.36
2023-05-09T01:49:29.707Z,12.81
2023-05-09T01:51:56.544Z,13.10
2023-05-09T01:54:23.498Z,13.06
2023-05-09T01:56:50.201Z,12.42
2023-05-09T01:59:17.610Z,12.28
2023-05-09T02:01:45.731Z,12.80
2023-05-09T02:04:13.967Z,12.41
2023-05-09T02:06:40.814Z,12.33
2023-05-09T02:09:08.433Z,12.10
2023-05-09T02:11:34.896Z,12.56
2023-05-09T02:14:01.388Z,12.56
2023-05-09T02:16:28.031Z,12.75
2023-05-09T02:18:54.541Z,12.71
2023-05-09T02:21:21.065Z,12.97
2023-05-09T02:23:47.715Z,12.30
2023-05-09T02:26:14.339Z,12.29
2023-05-09T02:28:41.800Z,12.38
2023-05-09T02:31:08.490Z,12.58
2023-05-09T02:33:36.188Z,12.45
2023-05-09T02:36:02.783Z,12.13
2023-05-09T02:38:29.238Z,12.38
2023-05-09T02:40:55.831Z,12.13
2023-05-09T02:43:22.592Z,12.30
2023-05-09T02:45:49.088Z,12.18
2023-05-09T02:48:15.654Z,12.31
2023-05-09T02:50:43.442Z,12.18
2023-05-09T02:53:10.041Z,12.05
2023-05-09T02:55:36.555Z,11.61
2023-05-09T02:58:13.472Z,11.88
2023-05-09T03:00:41.023Z,11.77
2023-05-09T03:03:07.631Z,11.41
2023-05-09T03:05:34.213Z,11.55
2023-05-09T03:08:00.703Z,11.52
2023-05-09T03:10:27.207Z,11.54
2023-05-09T03:12:53.740Z,11.44
2023-05-09T03:15:20.960Z,11.31
2023-05-09T03:17:47.790Z,11.58
2023-05-09T03:20:15.023Z,11.71
2023-05-09T03:22:41.582Z,11.26
2023-05-09T03:25:08.213Z,11.27
2023-05-09T03:27:36.726Z,11.13
2023-05-09T03:30:03.390Z,11.41
2023-05-09T03:32:30.013Z,11.02
2023-05-09T03:34:57.272Z,11.08
2023-05-09T03:37:26.227Z,11.19
2023-05-09T03:39:53.497Z,11.56
2023-05-09T03:42:20.109Z,11.46
2023-05-09T03:44:46.659Z,11.06
2023-05-09T03:47:13.172Z,11.55
2023-05-09T03:49:39.627Z,11.41
2023-05-09T03:52:06.120Z,11.08
2023-05-09T03:54:32.586Z,11.50
2023-05-09T03:56:59.107Z,11.11
2023-05-09T03:59:25.583Z,11.10
2023-05-09T04:01:52.121Z,10.90
2023-05-09T04:04:18.594Z,11.21
2023-05-09T04:06:45.106Z,11.41
2023-05-09T04:09:11.564Z,11.45
2023-05-09T04:11:38.145Z,11.11
2023-05-09T04:14:07.241Z,11.21
2023-05-09T04:16:33.908Z,11.33
2023-05-09T04:19:00.471Z,11.67
2023-05-09T04:21:26.981Z,11.46
2023-05-09T04:23:53.533Z,11.33
2023-05-09T04:26:21.894Z,11.21
2023-05-09T04:28:48.376Z,11.35
2023-05-09T04:31:15.052Z,11.65
2023-05-09T04:33:41.611Z,11.27
2023-05-09T04:36:08.450Z,11.27
2023-05-09T04:38:35.270Z,10.90
2023-05-09T04:41:01.821Z,11.23
2023-05-09T04:43:28.421Z,11.01
2023-05-09T04:45:54.911Z,11.34
2023-05-09T04:48:21.417Z,11.22
2023-05-09T04:50:48.644Z,11.42
2023-05-09T04:53:15.190Z,11.07
2023-05-09T04:55:41.630Z,11.38
2023-05-09T04:58:09.268Z,11.50
2023-05-09T05:00:35.883Z,11.41
2023-05-09T05:03:02.460Z,11.49
2023-05-09T05:05:29.073Z,11.93
2023-05-09T05:07:55.783Z,12.00
2023-05-09T05:10:22.242Z,11.77
2023-05-09T05:12:48.797Z,12.14
2023-05-09T05:15:15.581Z,12.01
2023-05-09T05:17:42.319Z,12.22
2023-05-09T05:20:10.619Z,12.08
2023-05-09T05:22:37.114Z,12.51
2023-05-09T05:25:04.529Z,12.05
2023-05-09T05:27:31.534Z,12.24
2023-05-09T05:29:58.091Z,12.89
2023-05-09T05:32:24.629Z,12.68
2023-05-09T05:34:51.152Z,12.46
2023-05-09T05:37:17.602Z,12.34
2023-05-09T05:39:44.060Z,12.50
2023-05-09T05:42:10.608Z,13.15
2023-05-09T05:44:37.082Z,13.07
2023-05-09T05:47:03.557Z,13.28
2023-05-09T05:49:30.072Z,13.21
2023-05-09T05:51:56.514Z,12.89
2023-05-09T05:54:23.002Z,12.99
2023-05-09T05:56:49.475Z,13.33
2023-05-09T05:59:16.295Z,13.40
2023-05-09T06:01:42.857Z,13.56
2023-05-09T06:04:09.411Z,13.88
2023-05-09T06:06:35.943Z,13.86
2023-05-09T06:09:02.548Z,13.93
2023-05-09T06:11:28.987Z,14.02
2023-05-09T06:13:55.532Z,13.85
2023-05-09T06:16:22.104Z,13.81
2023-05-09T06:18:48.731Z,14.07
2023-05-09T06:21:15.214Z,14.31
2023-05-09T06:23:56.957Z,14.07
2023-05-09T06:26:23.985Z,14.23
2023-05-09T06:28:50.440Z,14.65
2023-05-09T06:31:16.944Z,14.59
2023-05-09T06:33:43.459Z,15.00
2023-05-09T06:36:10.006Z,14.50
2023-05-09T06:38:36.486Z,14.72
2023-05-09T06:41:02.965Z,15.24
2023-05-09T06:43:29.488Z,15.02
2023-05-09T06:45:55.981Z,14.88
2023-05-09T06:48:24.020Z,15.33
2023-05-09T06:50:50.732Z,15.07
2023-05-09T06:53:17.257Z,15.16
2023-05-09T06:55:44.135Z,15.02
2023-05-09T06:58:11.281Z,15.01
2023-05-09T07:00:38.089Z,15.57
2023-05-09T07:03:04.622Z,15.26
2023-05-09T07:05:31.185Z,15.38
2023-05-09T07:07:57.847Z,15.01
2023-05-09T07:10:24.532Z,15.60
2023-05-09T07:12:51.084Z,15.59
2023-05-09T07:15:28.763Z,15.94
2023-05-09T07:18:03.666Z,16.74
2023-05-09T07:20:30.210Z,16.92
2023-05-09T07:22:58.433Z,17.44
2023-05-09T07:25:24.961Z,16.66
2023-05-09T07:27:51.499Z,16.63
2023-05-09T07:30:18.047Z,17.24
2023-05-09T07:32:44.563Z,17.22
2023-05-09T07:35:11.171Z,17.34
2023-05-09T07:37:37.597Z,16.78
2023-05-09T07:40:06.167Z,17.57
2023-05-09T07:42:33.143Z,16.90
2023-05-09T07:45:00.365Z,16.69
2023-05-09T07:47:26.970Z,17.20
2023-05-09T07:49:53.431Z,17.46
2023-05-09T07:52:19.923Z,17.56
2023-05-09T07:54:46.469Z,17.88
2023-05-09T07:57:13.031Z,17.74
2023-05-09T07:59:39.530Z,19.09
2023-05-09T08:02:06.520Z,19.47
2023-05-09T08:04:33.105Z,18.56
2023-05-09T08:06:59.669Z,18.04
2023-05-09T08:09:26.661Z,18.67
2023-05-09T08:11:53.179Z,19.66
2023-05-09T08:14:19.642Z,19.97
2023-05-09T08:16:46.086Z,19.64
2023-05-09T08:19:13.183Z,19.83
2023-05-09T08:21:39.675Z,19.53
2023-05-09T08:24:08.060Z,20.06
2023-05-09T08:26:35.257Z,19.94
2023-05-09T08:29:01.895Z,20.32
2023-05-09T08:31:28.460Z,20.50
2023-05-09T08:33:54.982Z,20.62
2023-05-09T08:36:21.508Z,20.36
2023-05-09T08:38:47.942Z,20.19
2023-05-09T08:41:14.609Z,19.90
2023-05-09T08:43:41.702Z,20.65
2023-05-09T08:46:10.065Z,20.65
2023-05-09T08:48:39.441Z,20.33
2023-05-09T08:51:06.777Z,20.61
2023-05-09T08:53:34.378Z,20.40
2023-05-09T08:56:03.772Z,21.52
2023-05-09T08:58:31.359Z,21.34
2023-05-09T09:00:59.060Z,20.31
2023-05-09T09:03:26.326Z,21.03
2023-05-09T09:05:54.496Z,20.79
2023-05-09T09:08:22.365Z,20.51
2023-05-09T09:10:49.025Z,20.60
2023-05-09T09:13:17.528Z,21.11
2023-05-09T09:15:46.003Z,20.98
2023-05-09T09:18:16.866Z,21.30
2023-05-09T09:20:50.142Z,21.74
2023-05-09T09:23:21.094Z,22.06
2023-05-09T09:25:48.115Z,21.94
2023-05-09T09:28:15.067Z,22.62
2023-05-09T09:30:47.548Z,21.13
2023-05-09T09:33:21.627Z,21.95
2023-05-09T09:35:52.429Z,22.37
2023-05-09T09:38:19.807Z,21.80
2023-05-09T09:41:04.450Z,20.91
2023-05-09T09:43:31.977Z,21.82
2023-05-09T09:46:02.632Z,21.65
2023-05-09T09:48:35.870Z,21.91
2023-05-09T09:51:08.364Z,22.56
2023-05-09T09:53:39.779Z,22.16
2023-05-09T09:56:06.581Z,22.04
2023-05-09T09:58:33.085Z,22.02
2023-05-09T10:01:10.597Z,22.07
2023-05-09T10:03:42.218Z,22.27
2023-05-09T10:06:14.106Z,23.32
2023-05-09T10:08:41.241Z,23.61
2023-05-09T10:11:07.850Z,23.48
2023-05-09T10:13:38.441Z,22.29
2023-05-09T10:16:06.406Z,23.33
2023-05-09T10:18:33.964Z,23.35
2023-05-09T10:21:05.201Z,22.96
2023-05-09T10:23:33.209Z,22.65
2023-05-09T10:26:16.938Z,22.89
2023-05-09T10:28:45.980Z,22.92
2023-05-09T10:31:16.266Z,23.64
2023-05-09T10:33:47.500Z,23.22
2023-05-09T10:36:17.693Z,23.56
2023-05-09T10:38:44.281Z,23.37
2023-05-09T10:41:12.221Z,23.55
2023-05-09T10:43:39.010Z,24.17
2023-05-09T10:46:06.262Z,24.76
2023-05-09T10:48:33.445Z,24.34
2023-05-09T10:51:03.674Z,24.08
2023-05-09T10:53:44.562Z,24.29
2023-05-09T10:56:39.887Z,23.52
2023-05-09T10:59:06.505Z,23.62
2023-05-09T11:01:39.246Z,23.56
2023-05-09T11:04:14.556Z,24.95
2023-05-09T11:06:45.530Z,25.15
2023-05-09T11:09:38.907Z,24.64
2023-05-09T11:12:05.497Z,24.14
2023-05-09T11:14:39.599Z,23.94
2023-05-09T11:17:08.099Z,24.33
2023-05-09T11:19:39.259Z,24.96
2023-05-09T11:22:28.561Z,24.36
2023-05-09T11:25:11.163Z,22.89
2023-05-09T11:27:40.835Z,23.41
2023-05-09T11:30:08.231Z,24.01
2023-05-09T11:32:41.948Z,24.64
2023-05-09T11:35:17.805Z,24.33
2023-05-09T11:37:49.719Z,24.37
2023-05-09T11:40:18.294Z,25.09
2023-05-09T11:42:50.048Z,23.73
2023-05-09T11:45:17.880Z,23.70
2023-05-09T11:47:45.821Z,23.63
2023-05-09T11:50:13.875Z,24.05
2023-05-09T11:52:41.497Z,24.37
2023-05-09T11:55:13.759Z,25.03
2023-05-09T11:57:49.124Z,23.58
2023-05-09T12:00:17.364Z,23.47
2023-05-09T12:02:45.699Z,23.84
2023-05-09T12:05:14.657Z,23.81
2023-05-09T12:07:42.234Z,23.25
2023-05-09T12:10:10.826Z,23.58
2023-05-09T12:12:43.156Z,24.33
2023-05-09T12:15:10.113Z,23.80
2023-05-09T12:17:36.997Z,23.67
2023-05-09T12:20:07.480Z,24.18
2023-05-09T12:22:34.364Z,23.82
2023-05-09T12:25:02.580Z,23.80
2023-05-09T12:27:29.373Z,24.28
2023-05-09T12:29:56.100Z,24.64
2023-05-09T12:32:22.742Z,24.95
2023-05-09T12:34:49.917Z,23.66
2023-05-09T12:37:18.270Z,24.65
2023-05-09T12:39:45.938Z,23.83
2023-05-09T12:42:13.597Z,23.61
2023-05-09T12:44:40.189Z,23.52
2023-05-09T12:47:06.670Z,24.30
2023-05-09T12:49:36.495Z,23.86
2023-05-09T12:52:04.767Z,23.85
2023-05-09T12:54:31.636Z,24.55
2023-05-09T12:56:58.589Z,24.93
2023-05-09T12:59:27.184Z,24.63
2023-05-09T13:01:57.983Z,24.04
2023-05-09T13:04:26.093Z,24.84
2023-05-09T13:06:55.580Z,25.17
2023-05-09T13:09:23.204Z,24.62
2023-05-09T13:11:51.001Z,23.63
2023-05-09T13:14:18.464Z,24.57
2023-05-09T13:16:45.087Z,25.26
2023-05-09T13:19:12.226Z,25.12
2023-05-09T13:21:38.753Z,23.33
2023-05-09T13:24:05.724Z,23.55
2023-05-09T13:26:32.390Z,23.56
2023-05-09T13:28:58.945Z,23.83
2023-05-09T13:31:25.753Z,23.84
2023-05-09T13:33:52.492Z,24.77
2023-05-09T13:36:19.351Z,24.13
2023-05-09T13:38:46.211Z,24.03
2023-05-09T13:41:13.706Z,23.96
2023-05-09T13:43:42.595Z,24.59
2023-05-09T13:46:09.201Z,23.87
2023-05-09T13:48:35.750Z,23.94
2023-05-09T13:51:03.713Z,23.74
2023-05-09T13:53:30.252Z,23.09
2023-05-09T13:55:57.043Z,24.14
2023-05-09T13:58:23.537Z,24.90
2023-05-09T14:00:50.297Z,24.55
2023-05-09T14:03:16.818Z,23.74
2023-05-09T14:05:43.409Z,24.15
2023-05-09T14:08:09.938Z,23.32
2023-05-09T14:10:36.392Z,23.79
2023-05-09T14:13:02.970Z,23.25
2023-05-09T14:15:29.957Z,23.34
2023-05-09T14:17:57.097Z,23.39
2023-05-09T14:20:23.696Z,23.94
2023-05-09T14:22:50.204Z,24.03
2023-05-09T14:25:16.962Z,23.78
2023-05-09T14:27:43.473Z,23.55
2023-05-09T14:30:10.406Z,23.29
2023-05-09T14:32:37.219Z,22.99
2023-05-09T14:35:04.105Z,22.81
2023-05-09T14:37:30.663Z,22.66
2023-05-09T14:40:05.259Z,22.39
2023-05-09T14:42:32.095Z,22.41
2023-05-09T14:44:58.750Z,23.29
2023-05-09T14:47:25.241Z,23.06
2023-05-09T14:49:52.335Z,23.05
2023-05-09T14:52:18.854Z,22.20
2023-05-09T14:54:45.414Z,22.87
2023-05-09T14:57:11.998Z,22.99
2023-05-09T14:59:38.480Z,22.33
2023-05-09T15:02:05.428Z,22.87
2023-05-09T15:04:31.990Z,22.70
2023-05-09T15:06:59.174Z,22.50
2023-05-09T15:09:25.849Z,22.80
2023-05-09T15:11:52.405Z,23.14
2023-05-09T15:14:18.919Z,22.21
2023-05-09T15:16:45.724Z,22.77
2023-05-09T15:19:12.355Z,22.86
2023-05-09T15:21:38.855Z,23.31
2023-05-09T15:24:05.627Z,23.61
2023-05-09T15:26:32.412Z,23.89
2023-05-09T15:28:59.116Z,23.06
2023-05-09T15:31:25.918Z,22.12
2023-05-09T15:33:52.516Z,22.08
2023-05-09T15:36:18.968Z,22.00
2023-05-09T15:38:49.378Z,21.87
2023-05-09T15:41:16.207Z,22.46
2023-05-09T15:43:42.878Z,22.10
2023-05-09T15:46:09.664Z,22.54
2023-05-09T15:48:36.285Z,22.04
2023-05-09T15:51:04.088Z,22.12
2023-05-09T15:53:30.773Z,22.02
2023-05-09T15:55:57.262Z,21.81
2023-05-09T15:58:23.785Z,21.39
2023-05-09T16:00:50.307Z,21.90
2023-05-09T16:03:16.994Z,22.27
2023-05-09T16:05:43.875Z,21.77
2023-05-09T16:08:10.679Z,21.81
2023-05-09T16:10:37.150Z,21.69
2023-05-09T16:13:03.674Z,22.12
2023-05-09T16:15:30.222Z,22.40
2023-05-09T16:17:56.958Z,21.82
2023-05-09T16:20:23.458Z,22.27
2023-05-09T16:22:49.957Z,22.58
2023-05-09T16:25:16.892Z,22.45
2023-05-09T16:27:43.377Z,22.57
2023-05-09T16:30:10.292Z,21.59
2023-05-09T16:32:37.006Z,21.68
2023-05-09T16:35:04.219Z,21.28
2023-05-09T16:37:31.084Z,21.86
2023-05-09T16:39:59.519Z,21.46
2023-05-09T16:42:26.067Z,21.16
2023-05-09T16:44:52.690Z,21.29
2023-05-09T16:47:19.174Z,21.70
2023-05-09T16:49:45.993Z,21.40
2023-05-09T16:52:12.490Z,21.22
2023-05-09T16:54:38.955Z,21.21
2023-05-09T16:57:05.922Z,21.26
2023-05-09T16:59:32.892Z,21.20
2023-05-09T17:02:00.029Z,21.40
2023-05-09T17:04:27.519Z,20.88
2023-05-09T17:06:54.192Z,21.26
2023-05-09T17:09:20.739Z,21.25
2023-05-09T17:11:48.268Z,21.89
2023-05-09T17:14:14.871Z,20.89
2023-05-09T17:16:41.413Z,20.92
2023-05-09T17:19:07.942Z,21.60
2023-05-09T17:21:34.948Z,21.08
2023-05-09T17:24:02.206Z,21.18
2023-05-09T17:26:29.607Z,20.54
2023-05-09T17:28:56.217Z,21.11
2023-05-09T17:31:22.834Z,21.22
2023-05-09T17:33:49.448Z,20.64
2023-05-09T17:36:15.972Z,20.65
2023-05-09T17:38:42.482Z,20.87
2023-05-09T17:41:09.049Z,20.35
2023-05-09T17:43:35.568Z,21.00
2023-05-09T17:46:02.289Z,20.29
2023-05-09T17:48:29.263Z,20.64
2023-05-09T17:50:56.255Z,20.67
2023-05-09T17:53:22.814Z,20.21
2023-05-09T17:55:49.269Z,20.41
2023-05-09T17:58:15.773Z,20.22
2023-05-09T18:00:42.313Z,20.23
2023-05-09T18:03:08.888Z,20.07
2023-05-09T18:05:35.475Z,19.90
2023-05-09T18:08:03.455Z,20.42
2023-05-09T18:10:30.001Z,20.45
2023-05-09T18:12:56.684Z,20.59
2023-05-09T18:15:24.423Z,20.36
2023-05-09T18:17:51.105Z,20.58
2023-05-09T18:20:18.162Z,19.89
2023-05-09T18:22:44.889Z,19.88
2023-05-09T18:25:11.580Z,19.74
2023-05-09T18:27:38.357Z,19.79
2023-05-09T18:30:05.416Z,20.01
2023-05-09T18:32:32.481Z,19.61
2023-05-09T18:34:59.037Z,19.98
2023-05-09T18:37:25.582Z,19.75
2023-05-09T18:39:52.108Z,19.54
2023-05-09T18:42:19.214Z,19.36
2023-05-09T18:44:45.996Z,19.67
2023-05-09T18:47:12.634Z,19.80
2023-05-09T18:49:39.283Z,19.75
2023-05-09T18:52:05.889Z,19.37
2023-05-09T18:54:32.523Z,19.92
2023-05-09T18:56:58.964Z,19.43
2023-05-09T18:59:25.495Z,19.16
2023-05-09T19:01:52.005Z,19.24
2023-05-09T19:04:19.518Z,18.67
2023-05-09T19:06:46.697Z,18.90
2023-05-09T19:09:13.289Z,18.99
2023-05-09T19:11:39.794Z,19.15
2023-05-09T19:14:06.593Z,18.84
2023-05-09T19:16:33.333Z,18.81
2023-05-09T19:19:01.028Z,18.78
2023-05-09T19:21:28.353Z,18.71
2023-05-09T19:23:54.991Z,19.10
2023-05-09T19:26:22.074Z,18.90
2023-05-09T19:28:48.745Z,19.01
2023-05-09T19:31:15.645Z,18.58
2023-05-09T19:33:45.336Z,18.41
2023-05-09T19:36:11.970Z,18.91
2023-05-09T19:38:39.904Z,18.72
2023-05-09T19:41:06.458Z,18.54
2023-05-09T19:43:32.940Z,18.72
2023-05-09T19:46:00.019Z,18.89
2023-05-09T19:48:26.631Z,18.29
2023-05-09T19:50:56.460Z,18.36
2023-05-09T19:53:22.922Z,18.65
2023-05-09T19:55:49.564Z,18.95
2023-05-09T19:58:17.754Z,18.43
2023-05-09T20:00:46.534Z,18.46
2023-05-09T20:03:13.330Z,18.52
2023-05-09T20:05:39.995Z,18.32
2023-05-09T20:08:09.408Z,18.34
2023-05-09T20:10:38.078Z,18.33
2023-05-09T20:13:05.425Z,18.12
2023-05-09T20:15:33.088Z,18.01
2023-05-09T20:18:03.659Z,18.20
2023-05-09T20:20:32.303Z,18.17
2023-05-09T20:23:00.476Z,17.78
2023-05-09T20:25:29.914Z,18.39
2023-05-09T20:27:56.452Z,17.87
2023-05-09T20:30:23.027Z,17.88
2023-05-09T20:32:49.528Z,17.64
2023-05-09T20:35:16.413Z,17.42
2023-05-09T20:37:42.954Z,17.64
2023-05-09T20:40:09.874Z,17.14
2023-05-09T20:42:36.478Z,17.15
2023-05-09T20:45:03.745Z,17.14
2023-05-09T20:47:30.250Z,17.00
2023-05-09T20:49:58.361Z,17.15
2023-05-09T20:52:25.158Z,17.31
2023-05-09T20:54:51.650Z,17.31
2023-05-09T20:57:19.017Z,17.39
2023-05-09T20:59:45.611Z,17.02
2023-05-09T21:02:12.147Z,16.90
2023-05-09T21:04:38.638Z,17.25
2023-05-09T21:07:05.255Z,16.96
2023-05-09T21:09:31.782Z,17.48
2023-05-09T21:11:58.726Z,17.15
2023-05-09T21:14:25.187Z,17.25
2023-05-09T21:16:51.983Z,17.23
2023-05-09T21:19:18.579Z,17.10
2023-05-09T21:21:45.430Z,16.81
2023-05-09T21:24:11.932Z,16.95
2023-05-09T21:26:38.796Z,17.25
2023-05-09T21:29:05.367Z,16.93
2023-05-09T21:31:31.855Z,16.76
2023-05-09T21:33:59.116Z,16.68
2023-05-09T21:36:28.145Z,16.98
2023-05-09T21:38:54.953Z,16.66
2023-05-09T21:41:22.509Z,16.74
2023-05-09T21:43:49.543Z,16.70
2023-05-09T21:46:16.578Z,16.75
2023-05-09T21:48:43.021Z,16.60
2023-05-09T21:51:10.272Z,16.68
2023-05-09T21:53:36.817Z,16.83
2023-05-09T21:56:03.472Z,17.13
2023-05-09T21:58:29.915Z,16.52
2023-05-09T22:00:56.386Z,16.54
2023-05-09T22:03:23.323Z,16.77
2023-05-09T22:05:50.148Z,16.53
2023-05-09T22:08:17.207Z,16.97
2023-05-09T22:10:43.684Z,16.72
2023-05-09T22:13:10.286Z,16.60
2023-05-09T22:15:36.842Z,16.52
2023-05-09T22:18:03.490Z,16.59
2023-05-09T22:20:29.985Z,16.63
2023-05-09T22:22:56.434Z,16.59
2023-05-09T22:25:23.136Z,16.27
2023-05-09T22:27:50.075Z,16.67
2023-05-09T22:30:17.522Z,16.74
2023-05-09T22:32:44.677Z,16.58
2023-05-09T22:35:11.888Z,16.23
2023-05-09T22:37:38.433Z,16.36
2023-05-09T22:40:05.935Z,16.28
2023-05-09T22:42:34.282Z,16.58
2023-05-09T22:45:01.109Z,16.24
2023-05-09T22:47:27.610Z,16.85
2023-05-09T22:49:54.198Z,16.78
2023-05-09T22:52:20.686Z,16.21
2023-05-09T22:54:47.716Z,15.99
2023-05-09T22:57:17.703Z,16.24
2023-05-09T22:59:44.401Z,16.28
2023-05-09T23:02:10.902Z,16.37
2023-05-09T23:04:37.401Z,16.49
2023-05-09T23:07:03.872Z,16.14
2023-05-09T23:09:31.484Z,15.73
2023-05-09T23:11:59.548Z,15.94
2023-05-09T23:14:26.017Z,16.09
2023-05-09T23:16:52.527Z,16.11
2023-05-09T23:19:19.768Z,16.49
2023-05-09T23:21:46.225Z,16.20
2023-05-09T23:24:12.726Z,16.10
2023-05-09T23:26:39.198Z,15.83
2023-05-09T23:29:05.752Z,15.91
2023-05-09T23:31:32.284Z,15.93
2023-05-09T23:33:58.805Z,16.14
2023-05-09T23:36:25.410Z,16.44
2023-05-09T23:38:51.905Z,15.91
2023-05-09T23:41:18.544Z,15.66
2023-05-09T23:43:45.077Z,16.04
2023-05-09T23:46:11.539Z,15.96
2023-05-09T23:48:38.052Z,15.90
2023-05-09T23:51:04.667Z,15.44
2023-05-09T23:53:34.939Z,15.72
2023-05-09T23:56:02.571Z,15.50
2023-05-09T23:58:29.087Z,15.37
